Terminal Aerodrome Forecast
Issued by NWS

Home | Current Version | Previous Version | Text Only | Print | Product List | Glossary On
Versions: 1 2 3 4 5 6 7 8 9 10 11 12 13
000
FTUS43 KICT 061735
TAFHUT
TAF
KHUT 061735Z 0618/0718 20015G24KT P6SM SCT050 BKN120
     FM062000 25015KT P6SM VCTS BKN050CB
      TEMPO 0621/0624 VRB20G35KT 3SM +TSRA OVC035CB
     FM070000 36014G22KT 4SM TSRA OVC040CB
     FM070500 02014G20KT 6SM -SHRA VCTS OVC035CB=

USA.gov is the U.S. government's official web portal to all federal, state and local government web resources and services.